sensor_id;sensor_type;location;lat;lon;timestamp;P1;durP1;ratioP1;P2;durP2;ratioP2
76745;SDS011;65671;49.976;20.038;2022-12-29T00:04:46;6.03;;;2.50;;
76745;SDS011;65671;49.976;20.038;2022-12-29T00:09:37;5.53;;;2.47;;
76745;SDS011;65671;49.976;20.038;2022-12-29T00:14:29;4.30;;;2.67;;
76745;SDS011;65671;49.976;20.038;2022-12-29T00:17:13;5.97;;;2.70;;
76745;SDS011;65671;49.976;20.038;2022-12-29T00:19:39;5.53;;;2.85;;
76745;SDS011;65671;49.976;20.038;2022-12-29T00:22:23;5.05;;;2.78;;
76745;SDS011;65671;49.976;20.038;2022-12-29T00:25:08;6.03;;;2.58;;
76745;SDS011;65671;49.976;20.038;2022-12-29T00:27:53;6.95;;;2.85;;
76745;SDS011;65671;49.976;20.038;2022-12-29T00:30:38;4.28;;;2.50;;
76745;SDS011;65671;49.976;20.038;2022-12-29T00:33:25;5.45;;;2.55;;
76745;SDS011;65671;49.976;20.038;2022-12-29T00:36:13;4.93;;;2.97;;
76745;SDS011;65671;49.976;20.038;2022-12-29T00:38:42;4.93;;;2.80;;
76745;SDS011;65671;49.976;20.038;2022-12-29T00:41:30;5.43;;;2.78;;
76745;SDS011;65671;49.976;20.038;2022-12-29T00:44:14;5.40;;;2.78;;
76745;SDS011;65671;49.976;20.038;2022-12-29T00:49:07;3.45;;;2.67;;
76745;SDS011;65671;49.976;20.038;2022-12-29T00:51:53;5.47;;;3.17;;
76745;SDS011;65671;49.976;20.038;2022-12-29T00:54:20;5.13;;;2.45;;
76745;SDS011;65671;49.976;20.038;2022-12-29T00:59:12;5.15;;;2.47;;
76745;SDS011;65671;49.976;20.038;2022-12-29T01:04:04;4.82;;;2.65;;
76745;SDS011;65671;49.976;20.038;2022-12-29T01:06:30;5.43;;;2.78;;
76745;SDS011;65671;49.976;20.038;2022-12-29T01:08:57;5.28;;;3.10;;
76745;SDS011;65671;49.976;20.038;2022-12-29T01:11:41;6.10;;;2.70;;
76745;SDS011;65671;49.976;20.038;2022-12-29T01:16:32;4.22;;;2.50;;
76745;SDS011;65671;49.976;20.038;2022-12-29T01:18:58;5.82;;;2.78;;
76745;SDS011;65671;49.976;20.038;2022-12-29T01:23:53;5.32;;;2.60;;
76745;SDS011;65671;49.976;20.038;2022-12-29T01:28:43;6.73;;;2.50;;
76745;SDS011;65671;49.976;20.038;2022-12-29T01:31:10;4.18;;;2.63;;
76745;SDS011;65671;49.976;20.038;2022-12-29T01:33:37;5.30;;;2.70;;
76745;SDS011;65671;49.976;20.038;2022-12-29T01:38:29;6.95;;;2.80;;
76745;SDS011;65671;49.976;20.038;2022-12-29T01:43:20;4.80;;;2.40;;
76745;SDS011;65671;49.976;20.038;2022-12-29T01:48:16;4.03;;;2.50;;
76745;SDS011;65671;49.976;20.038;2022-12-29T01:50:45;6.30;;;2.67;;
76745;SDS011;65671;49.976;20.038;2022-12-29T01:53:19;5.10;;;2.20;;
76745;SDS011;65671;49.976;20.038;2022-12-29T01:55:52;4.82;;;2.75;;
76745;SDS011;65671;49.976;20.038;2022-12-29T01:58:22;4.70;;;2.53;;
76745;SDS011;65671;49.976;20.038;2022-12-29T02:00:52;4.13;;;2.30;;
76745;SDS011;65671;49.976;20.038;2022-12-29T02:05:46;5.00;;;2.60;;
76745;SDS011;65671;49.976;20.038;2022-12-29T02:08:16;4.47;;;2.20;;
76745;SDS011;65671;49.976;20.038;2022-12-29T02:10:43;4.65;;;2.78;;
76745;SDS011;65671;49.976;20.038;2022-12-29T02:13:10;5.45;;;2.97;;
76745;SDS011;65671;49.976;20.038;2022-12-29T02:18:25;4.30;;;2.38;;
76745;SDS011;65671;49.976;20.038;2022-12-29T02:37:25;4.25;;;2.40;;
76745;SDS011;65671;49.976;20.038;2022-12-29T02:42:49;4.35;;;3.00;;
76745;SDS011;65671;49.976;20.038;2022-12-29T02:45:31;4.32;;;2.53;;
76745;SDS011;65671;49.976;20.038;2022-12-29T02:50:57;4.00;;;2.38;;
76745;SDS011;65671;49.976;20.038;2022-12-29T02:53:29;3.40;;;2.22;;
76745;SDS011;65671;49.976;20.038;2022-12-29T02:56:16;3.80;;;2.20;;
76745;SDS011;65671;49.976;20.038;2022-12-29T02:58:42;3.67;;;1.95;;
76745;SDS011;65671;49.976;20.038;2022-12-29T03:06:25;5.15;;;2.45;;
76745;SDS011;65671;49.976;20.038;2022-12-29T03:11:58;4.18;;;2.55;;
76745;SDS011;65671;49.976;20.038;2022-12-29T03:14:35;5.97;;;2.65;;
76745;SDS011;65671;49.976;20.038;2022-12-29T03:20:13;5.03;;;1.98;;
76745;SDS011;65671;49.976;20.038;2022-12-29T03:22:51;5.13;;;2.60;;
76745;SDS011;65671;49.976;20.038;2022-12-29T03:25:27;3.72;;;2.25;;
76745;SDS011;65671;49.976;20.038;2022-12-29T03:27:56;4.90;;;2.65;;
76745;SDS011;65671;49.976;20.038;2022-12-29T03:30:26;3.50;;;2.00;;
76745;SDS011;65671;49.976;20.038;2022-12-29T03:32:58;2.97;;;2.05;;
76745;SDS011;65671;49.976;20.038;2022-12-29T03:35:28;4.63;;;2.60;;
76745;SDS011;65671;49.976;20.038;2022-12-29T03:40:39;2.67;;;1.98;;
76745;SDS011;65671;49.976;20.038;2022-12-29T03:43:08;5.78;;;2.40;;
76745;SDS011;65671;49.976;20.038;2022-12-29T03:45:35;4.07;;;2.10;;
76745;SDS011;65671;49.976;20.038;2022-12-29T03:48:01;4.60;;;2.30;;
76745;SDS011;65671;49.976;20.038;2022-12-29T03:50:26;3.50;;;2.65;;
76745;SDS011;65671;49.976;20.038;2022-12-29T03:52:52;3.30;;;1.92;;
76745;SDS011;65671;49.976;20.038;2022-12-29T03:57:53;3.55;;;2.30;;
76745;SDS011;65671;49.976;20.038;2022-12-29T04:00:18;3.15;;;2.20;;
76745;SDS011;65671;49.976;20.038;2022-12-29T04:02:43;4.78;;;2.30;;
76745;SDS011;65671;49.976;20.038;2022-12-29T04:05:09;4.28;;;2.25;;
76745;SDS011;65671;49.976;20.038;2022-12-29T04:07:34;3.35;;;2.00;;
76745;SDS011;65671;49.976;20.038;2022-12-29T04:10:00;3.78;;;2.25;;
76745;SDS011;65671;49.976;20.038;2022-12-29T04:12:25;3.72;;;2.15;;
76745;SDS011;65671;49.976;20.038;2022-12-29T04:14:51;4.88;;;2.30;;
76745;SDS011;65671;49.976;20.038;2022-12-29T04:17:16;4.55;;;2.13;;
76745;SDS011;65671;49.976;20.038;2022-12-29T04:19:42;3.80;;;2.08;;
76745;SDS011;65671;49.976;20.038;2022-12-29T04:22:07;4.03;;;2.40;;
76745;SDS011;65671;49.976;20.038;2022-12-29T04:24:33;5.38;;;2.33;;
76745;SDS011;65671;49.976;20.038;2022-12-29T04:26:58;4.45;;;2.17;;
76745;SDS011;65671;49.976;20.038;2022-12-29T04:29:24;3.88;;;1.90;;
76745;SDS011;65671;49.976;20.038;2022-12-29T04:31:49;3.70;;;2.10;;
76745;SDS011;65671;49.976;20.038;2022-12-29T04:34:15;4.35;;;2.33;;
76745;SDS011;65671;49.976;20.038;2022-12-29T04:36:40;3.88;;;2.20;;
76745;SDS011;65671;49.976;20.038;2022-12-29T04:39:06;4.65;;;2.53;;
76745;SDS011;65671;49.976;20.038;2022-12-29T04:41:31;3.47;;;1.95;;
76745;SDS011;65671;49.976;20.038;2022-12-29T04:43:57;5.78;;;2.60;;
76745;SDS011;65671;49.976;20.038;2022-12-29T04:46:22;5.72;;;2.40;;
76745;SDS011;65671;49.976;20.038;2022-12-29T04:48:48;3.83;;;2.40;;
76745;SDS011;65671;49.976;20.038;2022-12-29T04:51:13;3.78;;;2.47;;
76745;SDS011;65671;49.976;20.038;2022-12-29T04:53:39;3.53;;;2.40;;
76745;SDS011;65671;49.976;20.038;2022-12-29T04:56:05;4.60;;;2.42;;
76745;SDS011;65671;49.976;20.038;2022-12-29T04:58:31;4.07;;;2.30;;
76745;SDS011;65671;49.976;20.038;2022-12-29T05:03:21;5.27;;;2.27;;
76745;SDS011;65671;49.976;20.038;2022-12-29T05:05:47;4.43;;;2.40;;
76745;SDS011;65671;49.976;20.038;2022-12-29T05:08:12;4.38;;;2.47;;
76745;SDS011;65671;49.976;20.038;2022-12-29T05:10:38;5.22;;;2.78;;
76745;SDS011;65671;49.976;20.038;2022-12-29T05:13:03;5.85;;;2.95;;
76745;SDS011;65671;49.976;20.038;2022-12-29T05:15:29;4.38;;;2.33;;
76745;SDS011;65671;49.976;20.038;2022-12-29T05:20:42;4.50;;;2.80;;
76745;SDS011;65671;49.976;20.038;2022-12-29T05:25:33;6.03;;;3.38;;
76745;SDS011;65671;49.976;20.038;2022-12-29T05:30:24;6.70;;;3.78;;
76745;SDS011;65671;49.976;20.038;2022-12-29T05:35:15;8.85;;;3.92;;
76745;SDS011;65671;49.976;20.038;2022-12-29T05:40:06;5.88;;;2.53;;
76745;SDS011;65671;49.976;20.038;2022-12-29T05:42:32;4.28;;;2.42;;
76745;SDS011;65671;49.976;20.038;2022-12-29T05:47:23;3.23;;;1.97;;
76745;SDS011;65671;49.976;20.038;2022-12-29T05:55:07;4.68;;;2.78;;
76745;SDS011;65671;49.976;20.038;2022-12-29T05:57:33;5.20;;;2.72;;
76745;SDS011;65671;49.976;20.038;2022-12-29T06:02:24;3.53;;;2.50;;
76745;SDS011;65671;49.976;20.038;2022-12-29T06:04:49;4.70;;;2.63;;
76745;SDS011;65671;49.976;20.038;2022-12-29T06:07:15;6.80;;;2.55;;
76745;SDS011;65671;49.976;20.038;2022-12-29T06:09:40;4.05;;;2.50;;
76745;SDS011;65671;49.976;20.038;2022-12-29T06:12:06;5.85;;;2.78;;
76745;SDS011;65671;49.976;20.038;2022-12-29T06:14:31;3.97;;;2.53;;
76745;SDS011;65671;49.976;20.038;2022-12-29T06:16:57;4.03;;;2.53;;
76745;SDS011;65671;49.976;20.038;2022-12-29T06:19:23;6.70;;;3.08;;
76745;SDS011;65671;49.976;20.038;2022-12-29T06:21:48;4.78;;;2.50;;
76745;SDS011;65671;49.976;20.038;2022-12-29T06:24:14;4.95;;;2.80;;
76745;SDS011;65671;49.976;20.038;2022-12-29T06:26:39;3.78;;;2.30;;
76745;SDS011;65671;49.976;20.038;2022-12-29T06:29:05;4.68;;;2.53;;
76745;SDS011;65671;49.976;20.038;2022-12-29T06:31:33;5.20;;;2.78;;
76745;SDS011;65671;49.976;20.038;2022-12-29T06:36:24;5.32;;;2.97;;
76745;SDS011;65671;49.976;20.038;2022-12-29T06:38:49;5.45;;;2.92;;
76745;SDS011;65671;49.976;20.038;2022-12-29T06:41:17;4.78;;;3.35;;
76745;SDS011;65671;49.976;20.038;2022-12-29T06:43:44;6.00;;;2.83;;
76745;SDS011;65671;49.976;20.038;2022-12-29T06:48:35;3.88;;;2.58;;
76745;SDS011;65671;49.976;20.038;2022-12-29T06:51:00;6.55;;;3.58;;
76745;SDS011;65671;49.976;20.038;2022-12-29T06:53:26;7.35;;;3.85;;
76745;SDS011;65671;49.976;20.038;2022-12-29T06:55:51;5.97;;;3.60;;
76745;SDS011;65671;49.976;20.038;2022-12-29T06:58:17;8.27;;;4.40;;
76745;SDS011;65671;49.976;20.038;2022-12-29T07:00:43;6.88;;;3.13;;
76745;SDS011;65671;49.976;20.038;2022-12-29T07:03:08;6.50;;;4.07;;
76745;SDS011;65671;49.976;20.038;2022-12-29T07:05:34;7.40;;;3.95;;
76745;SDS011;65671;49.976;20.038;2022-12-29T07:08:00;7.72;;;3.53;;
76745;SDS011;65671;49.976;20.038;2022-12-29T07:10:25;6.85;;;3.28;;
76745;SDS011;65671;49.976;20.038;2022-12-29T07:12:51;7.32;;;3.38;;
76745;SDS011;65671;49.976;20.038;2022-12-29T07:15:17;6.53;;;3.20;;
76745;SDS011;65671;49.976;20.038;2022-12-29T07:17:43;7.95;;;3.50;;
76745;SDS011;65671;49.976;20.038;2022-12-29T07:20:08;7.10;;;3.55;;
76745;SDS011;65671;49.976;20.038;2022-12-29T07:22:34;6.30;;;3.47;;
76745;SDS011;65671;49.976;20.038;2022-12-29T07:25:00;5.88;;;3.03;;
76745;SDS011;65671;49.976;20.038;2022-12-29T07:27:27;5.10;;;2.95;;
76745;SDS011;65671;49.976;20.038;2022-12-29T07:32:18;6.07;;;2.97;;
76745;SDS011;65671;49.976;20.038;2022-12-29T07:34:44;7.05;;;3.13;;
76745;SDS011;65671;49.976;20.038;2022-12-29T07:37:12;5.55;;;2.90;;
76745;SDS011;65671;49.976;20.038;2022-12-29T07:39:40;5.82;;;2.95;;
76745;SDS011;65671;49.976;20.038;2022-12-29T07:42:05;5.40;;;2.97;;
76745;SDS011;65671;49.976;20.038;2022-12-29T07:44:31;4.88;;;2.65;;
76745;SDS011;65671;49.976;20.038;2022-12-29T07:46:56;5.05;;;2.80;;
76745;SDS011;65671;49.976;20.038;2022-12-29T07:49:22;4.57;;;2.88;;
76745;SDS011;65671;49.976;20.038;2022-12-29T07:51:48;6.00;;;3.33;;
76745;SDS011;65671;49.976;20.038;2022-12-29T07:54:13;8.20;;;3.90;;
76745;SDS011;65671;49.976;20.038;2022-12-29T07:56:39;7.70;;;3.63;;
76745;SDS011;65671;49.976;20.038;2022-12-29T07:59:05;7.93;;;4.18;;
76745;SDS011;65671;49.976;20.038;2022-12-29T08:01:30;4.90;;;2.88;;
76745;SDS011;65671;49.976;20.038;2022-12-29T08:03:56;5.45;;;3.30;;
76745;SDS011;65671;49.976;20.038;2022-12-29T08:06:21;7.07;;;3.60;;
76745;SDS011;65671;49.976;20.038;2022-12-29T08:08:47;5.57;;;3.15;;
76745;SDS011;65671;49.976;20.038;2022-12-29T08:11:12;6.65;;;3.60;;
76745;SDS011;65671;49.976;20.038;2022-12-29T08:13:38;6.90;;;3.95;;
76745;SDS011;65671;49.976;20.038;2022-12-29T08:16:03;7.03;;;3.65;;
76745;SDS011;65671;49.976;20.038;2022-12-29T08:18:29;7.80;;;4.30;;
76745;SDS011;65671;49.976;20.038;2022-12-29T08:20:55;6.57;;;4.05;;
76745;SDS011;65671;49.976;20.038;2022-12-29T08:23:20;7.43;;;3.65;;
76745;SDS011;65671;49.976;20.038;2022-12-29T08:25:45;7.32;;;3.78;;
76745;SDS011;65671;49.976;20.038;2022-12-29T08:28:11;7.45;;;4.03;;
76745;SDS011;65671;49.976;20.038;2022-12-29T08:30:36;7.68;;;3.97;;
76745;SDS011;65671;49.976;20.038;2022-12-29T08:33:02;7.38;;;3.60;;
76745;SDS011;65671;49.976;20.038;2022-12-29T08:35:28;9.18;;;4.30;;
76745;SDS011;65671;49.976;20.038;2022-12-29T08:37:53;6.53;;;3.90;;
76745;SDS011;65671;49.976;20.038;2022-12-29T08:40:18;6.82;;;3.63;;
76745;SDS011;65671;49.976;20.038;2022-12-29T08:42:44;7.00;;;3.65;;
76745;SDS011;65671;49.976;20.038;2022-12-29T08:45:10;6.65;;;3.95;;
76745;SDS011;65671;49.976;20.038;2022-12-29T08:47:35;8.93;;;4.30;;
76745;SDS011;65671;49.976;20.038;2022-12-29T08:50:01;10.02;;;4.18;;
76745;SDS011;65671;49.976;20.038;2022-12-29T08:52:26;8.05;;;3.83;;
76745;SDS011;65671;49.976;20.038;2022-12-29T08:54:52;8.98;;;4.20;;
76745;SDS011;65671;49.976;20.038;2022-12-29T08:57:17;7.25;;;3.63;;
76745;SDS011;65671;49.976;20.038;2022-12-29T08:59:43;8.05;;;3.97;;
76745;SDS011;65671;49.976;20.038;2022-12-29T09:02:11;7.00;;;3.42;;
76745;SDS011;65671;49.976;20.038;2022-12-29T09:04:37;6.82;;;3.92;;
76745;SDS011;65671;49.976;20.038;2022-12-29T09:07:03;10.50;;;3.83;;
76745;SDS011;65671;49.976;20.038;2022-12-29T09:09:28;7.43;;;3.85;;
76745;SDS011;65671;49.976;20.038;2022-12-29T09:11:53;7.22;;;3.80;;
76745;SDS011;65671;49.976;20.038;2022-12-29T09:14:19;6.88;;;3.45;;
76745;SDS011;65671;49.976;20.038;2022-12-29T09:16:46;7.75;;;3.60;;
76745;SDS011;65671;49.976;20.038;2022-12-29T09:19:30;6.55;;;3.65;;
76745;SDS011;65671;49.976;20.038;2022-12-29T09:21:55;5.97;;;3.33;;
76745;SDS011;65671;49.976;20.038;2022-12-29T09:24:21;7.55;;;3.85;;
76745;SDS011;65671;49.976;20.038;2022-12-29T09:26:46;5.82;;;3.65;;
76745;SDS011;65671;49.976;20.038;2022-12-29T09:29:12;5.72;;;3.35;;
76745;SDS011;65671;49.976;20.038;2022-12-29T09:31:37;5.55;;;3.00;;
76745;SDS011;65671;49.976;20.038;2022-12-29T09:34:03;5.70;;;3.45;;
76745;SDS011;65671;49.976;20.038;2022-12-29T09:36:28;6.20;;;3.33;;
76745;SDS011;65671;49.976;20.038;2022-12-29T09:38:54;6.00;;;3.25;;
76745;SDS011;65671;49.976;20.038;2022-12-29T09:41:22;6.25;;;3.55;;
76745;SDS011;65671;49.976;20.038;2022-12-29T09:46:55;6.70;;;3.58;;
76745;SDS011;65671;49.976;20.038;2022-12-29T09:51:54;8.32;;;3.70;;
76745;SDS011;65671;49.976;20.038;2022-12-29T09:54:29;7.30;;;4.20;;
76745;SDS011;65671;49.976;20.038;2022-12-29T09:57:03;7.40;;;3.42;;
76745;SDS011;65671;49.976;20.038;2022-12-29T09:59:41;7.07;;;3.42;;
76745;SDS011;65671;49.976;20.038;2022-12-29T10:04:59;7.30;;;3.83;;
76745;SDS011;65671;49.976;20.038;2022-12-29T10:10:02;7.18;;;3.05;;
76745;SDS011;65671;49.976;20.038;2022-12-29T10:12:36;6.47;;;3.40;;
76745;SDS011;65671;49.976;20.038;2022-12-29T10:18:18;5.00;;;2.92;;
76745;SDS011;65671;49.976;20.038;2022-12-29T10:23:53;5.60;;;3.20;;
76745;SDS011;65671;49.976;20.038;2022-12-29T10:26:27;5.20;;;3.60;;
76745;SDS011;65671;49.976;20.038;2022-12-29T10:28:59;6.47;;;3.40;;
76745;SDS011;65671;49.976;20.038;2022-12-29T10:31:50;6.00;;;3.50;;
76745;SDS011;65671;49.976;20.038;2022-12-29T10:34:27;5.70;;;3.20;;
76745;SDS011;65671;49.976;20.038;2022-12-29T10:39:50;5.20;;;3.22;;
76745;SDS011;65671;49.976;20.038;2022-12-29T10:42:24;5.47;;;2.90;;
76745;SDS011;65671;49.976;20.038;2022-12-29T10:44:58;6.68;;;3.95;;
76745;SDS011;65671;49.976;20.038;2022-12-29T10:47:26;5.65;;;3.42;;
76745;SDS011;65671;49.976;20.038;2022-12-29T10:49:54;5.22;;;3.17;;
76745;SDS011;65671;49.976;20.038;2022-12-29T10:52:23;6.78;;;3.70;;
76745;SDS011;65671;49.976;20.038;2022-12-29T10:55:02;5.70;;;3.65;;
76745;SDS011;65671;49.976;20.038;2022-12-29T10:57:43;6.65;;;3.70;;
76745;SDS011;65671;49.976;20.038;2022-12-29T11:00:11;8.35;;;3.85;;
76745;SDS011;65671;49.976;20.038;2022-12-29T11:05:28;4.93;;;3.03;;
76745;SDS011;65671;49.976;20.038;2022-12-29T11:08:02;5.93;;;3.75;;
76745;SDS011;65671;49.976;20.038;2022-12-29T11:13:18;7.18;;;4.10;;
76745;SDS011;65671;49.976;20.038;2022-12-29T11:15:49;6.43;;;4.13;;
76745;SDS011;65671;49.976;20.038;2022-12-29T11:18:37;5.85;;;3.75;;
76745;SDS011;65671;49.976;20.038;2022-12-29T11:21:04;6.93;;;3.60;;
76745;SDS011;65671;49.976;20.038;2022-12-29T11:24:03;5.93;;;3.67;;
76745;SDS011;65671;49.976;20.038;2022-12-29T11:26:31;7.32;;;4.20;;
76745;SDS011;65671;49.976;20.038;2022-12-29T11:31:43;6.45;;;3.92;;
76745;SDS011;65671;49.976;20.038;2022-12-29T11:36:51;7.05;;;4.05;;
76745;SDS011;65671;49.976;20.038;2022-12-29T11:41:55;6.38;;;3.55;;
76745;SDS011;65671;49.976;20.038;2022-12-29T11:44:22;5.47;;;3.78;;
76745;SDS011;65671;49.976;20.038;2022-12-29T11:46:49;6.57;;;3.95;;
76745;SDS011;65671;49.976;20.038;2022-12-29T11:49:21;6.55;;;3.95;;
76745;SDS011;65671;49.976;20.038;2022-12-29T11:51:50;6.55;;;3.90;;
76745;SDS011;65671;49.976;20.038;2022-12-29T11:54:29;6.50;;;3.92;;
76745;SDS011;65671;49.976;20.038;2022-12-29T11:56:59;7.85;;;4.38;;
76745;SDS011;65671;49.976;20.038;2022-12-29T12:00:00;10.43;;;5.10;;
76745;SDS011;65671;49.976;20.038;2022-12-29T12:05:11;9.40;;;4.97;;
76745;SDS011;65671;49.976;20.038;2022-12-29T12:07:46;7.03;;;4.60;;
76745;SDS011;65671;49.976;20.038;2022-12-29T12:10:35;10.18;;;5.15;;
76745;SDS011;65671;49.976;20.038;2022-12-29T12:19:56;5.95;;;3.88;;
76745;SDS011;65671;49.976;20.038;2022-12-29T12:27:38;6.50;;;3.65;;
76745;SDS011;65671;49.976;20.038;2022-12-29T12:30:13;9.65;;;3.63;;
76745;SDS011;65671;49.976;20.038;2022-12-29T12:35:35;6.07;;;3.45;;
76745;SDS011;65671;49.976;20.038;2022-12-29T12:43:40;4.85;;;3.08;;
76745;SDS011;65671;49.976;20.038;2022-12-29T12:46:20;6.55;;;3.60;;
76745;SDS011;65671;49.976;20.038;2022-12-29T12:49:06;7.25;;;3.65;;
76745;SDS011;65671;49.976;20.038;2022-12-29T13:00:22;8.02;;;4.03;;
76745;SDS011;65671;49.976;20.038;2022-12-29T13:03:12;6.35;;;4.10;;
76745;SDS011;65671;49.976;20.038;2022-12-29T13:13:34;9.40;;;4.75;;
76745;SDS011;65671;49.976;20.038;2022-12-29T13:30:12;11.25;;;4.22;;
76745;SDS011;65671;49.976;20.038;2022-12-29T13:35:45;6.82;;;4.60;;
76745;SDS011;65671;49.976;20.038;2022-12-29T13:38:30;7.93;;;4.38;;
76745;SDS011;65671;49.976;20.038;2022-12-29T13:41:06;8.48;;;4.78;;
76745;SDS011;65671;49.976;20.038;2022-12-29T13:43:39;9.25;;;4.53;;
76745;SDS011;65671;49.976;20.038;2022-12-29T13:46:28;9.48;;;5.05;;
76745;SDS011;65671;49.976;20.038;2022-12-29T13:48:59;9.15;;;5.60;;
76745;SDS011;65671;49.976;20.038;2022-12-29T13:51:37;8.75;;;4.50;;
76745;SDS011;65671;49.976;20.038;2022-12-29T14:00:00;10.50;;;5.82;;
76745;SDS011;65671;49.976;20.038;2022-12-29T14:07:43;10.95;;;5.68;;
76745;SDS011;65671;49.976;20.038;2022-12-29T14:13:12;11.10;;;5.18;;
76745;SDS011;65671;49.976;20.038;2022-12-29T14:15:56;12.77;;;5.75;;
76745;SDS011;65671;49.976;20.038;2022-12-29T14:18:42;12.23;;;5.15;;
76745;SDS011;65671;49.976;20.038;2022-12-29T14:23:44;9.43;;;5.35;;
76745;SDS011;65671;49.976;20.038;2022-12-29T14:26:32;10.30;;;5.53;;
76745;SDS011;65671;49.976;20.038;2022-12-29T14:31:51;8.40;;;5.13;;
76745;SDS011;65671;49.976;20.038;2022-12-29T14:39:37;12.00;;;5.70;;
76745;SDS011;65671;49.976;20.038;2022-12-29T14:42:15;12.85;;;5.90;;
76745;SDS011;65671;49.976;20.038;2022-12-29T14:47:54;11.25;;;5.28;;
76745;SDS011;65671;49.976;20.038;2022-12-29T14:58:30;10.77;;;5.22;;
76745;SDS011;65671;49.976;20.038;2022-12-29T15:01:00;9.27;;;5.47;;
76745;SDS011;65671;49.976;20.038;2022-12-29T15:08:43;12.63;;;6.43;;
76745;SDS011;65671;49.976;20.038;2022-12-29T15:13:49;9.70;;;5.70;;
76745;SDS011;65671;49.976;20.038;2022-12-29T15:21:26;10.60;;;5.43;;
76745;SDS011;65671;49.976;20.038;2022-12-29T15:23:54;10.45;;;6.38;;
76745;SDS011;65671;49.976;20.038;2022-12-29T15:26:20;9.88;;;5.53;;
76745;SDS011;65671;49.976;20.038;2022-12-29T15:28:51;10.35;;;5.75;;
76745;SDS011;65671;49.976;20.038;2022-12-29T15:31:21;11.07;;;6.10;;
76745;SDS011;65671;49.976;20.038;2022-12-29T15:33:52;12.25;;;5.97;;
76745;SDS011;65671;49.976;20.038;2022-12-29T15:36:21;9.90;;;5.97;;
76745;SDS011;65671;49.976;20.038;2022-12-29T15:38:49;9.98;;;5.95;;
76745;SDS011;65671;49.976;20.038;2022-12-29T15:41:19;12.02;;;6.28;;
76745;SDS011;65671;49.976;20.038;2022-12-29T15:46:13;13.50;;;7.23;;
76745;SDS011;65671;49.976;20.038;2022-12-29T15:48:39;12.15;;;7.00;;
76745;SDS011;65671;49.976;20.038;2022-12-29T15:51:23;12.63;;;6.70;;
76745;SDS011;65671;49.976;20.038;2022-12-29T15:53:54;12.02;;;6.32;;
76745;SDS011;65671;49.976;20.038;2022-12-29T15:56:20;13.57;;;7.88;;
76745;SDS011;65671;49.976;20.038;2022-12-29T15:58:47;13.25;;;7.00;;
76745;SDS011;65671;49.976;20.038;2022-12-29T16:01:18;15.88;;;7.93;;
76745;SDS011;65671;49.976;20.038;2022-12-29T16:03:44;12.85;;;7.45;;
76745;SDS011;65671;49.976;20.038;2022-12-29T16:06:21;19.13;;;9.63;;
76745;SDS011;65671;49.976;20.038;2022-12-29T16:08:55;14.82;;;7.55;;
76745;SDS011;65671;49.976;20.038;2022-12-29T16:11:38;19.17;;;8.95;;
76745;SDS011;65671;49.976;20.038;2022-12-29T16:14:16;20.38;;;9.82;;
76745;SDS011;65671;49.976;20.038;2022-12-29T16:17:03;17.27;;;8.48;;
76745;SDS011;65671;49.976;20.038;2022-12-29T16:19:32;14.75;;;7.47;;
76745;SDS011;65671;49.976;20.038;2022-12-29T16:22:01;19.65;;;8.55;;
76745;SDS011;65671;49.976;20.038;2022-12-29T16:24:29;15.68;;;8.25;;
76745;SDS011;65671;49.976;20.038;2022-12-29T16:29:22;16.05;;;7.28;;
76745;SDS011;65671;49.976;20.038;2022-12-29T16:36:58;21.23;;;8.52;;
76745;SDS011;65671;49.976;20.038;2022-12-29T16:39:44;26.67;;;10.82;;
76745;SDS011;65671;49.976;20.038;2022-12-29T16:50:40;17.33;;;7.68;;
76745;SDS011;65671;49.976;20.038;2022-12-29T16:53:17;14.52;;;7.30;;
76745;SDS011;65671;49.976;20.038;2022-12-29T16:55:46;13.18;;;6.68;;
76745;SDS011;65671;49.976;20.038;2022-12-29T16:58:17;13.85;;;6.78;;
76745;SDS011;65671;49.976;20.038;2022-12-29T17:00:47;14.07;;;7.40;;
76745;SDS011;65671;49.976;20.038;2022-12-29T17:03:13;21.52;;;9.45;;
76745;SDS011;65671;49.976;20.038;2022-12-29T17:05:40;26.70;;;10.07;;
76745;SDS011;65671;49.976;20.038;2022-12-29T17:08:18;23.55;;;10.23;;
76745;SDS011;65671;49.976;20.038;2022-12-29T17:10:52;20.75;;;10.00;;
76745;SDS011;65671;49.976;20.038;2022-12-29T17:13:39;20.75;;;10.73;;
76745;SDS011;65671;49.976;20.038;2022-12-29T17:16:05;23.42;;;10.30;;
76745;SDS011;65671;49.976;20.038;2022-12-29T17:18:33;22.73;;;10.50;;
76745;SDS011;65671;49.976;20.038;2022-12-29T17:20:59;25.58;;;10.48;;
76745;SDS011;65671;49.976;20.038;2022-12-29T17:23:25;21.60;;;10.00;;
76745;SDS011;65671;49.976;20.038;2022-12-29T17:25:52;27.77;;;11.32;;
76745;SDS011;65671;49.976;20.038;2022-12-29T17:28:20;39.38;;;12.68;;
76745;SDS011;65671;49.976;20.038;2022-12-29T17:30:49;39.47;;;17.27;;
76745;SDS011;65671;49.976;20.038;2022-12-29T17:33:17;46.00;;;19.92;;
76745;SDS011;65671;49.976;20.038;2022-12-29T17:35:44;43.00;;;18.20;;
76745;SDS011;65671;49.976;20.038;2022-12-29T17:40:43;33.53;;;13.90;;
76745;SDS011;65671;49.976;20.038;2022-12-29T17:43:08;28.40;;;12.57;;
76745;SDS011;65671;49.976;20.038;2022-12-29T17:45:38;25.98;;;11.75;;
76745;SDS011;65671;49.976;20.038;2022-12-29T17:48:12;37.72;;;15.02;;
76745;SDS011;65671;49.976;20.038;2022-12-29T17:50:39;40.40;;;16.90;;
76745;SDS011;65671;49.976;20.038;2022-12-29T17:53:06;40.00;;;16.70;;
76745;SDS011;65671;49.976;20.038;2022-12-29T17:55:36;37.95;;;15.52;;
76745;SDS011;65671;49.976;20.038;2022-12-29T17:58:08;32.28;;;14.93;;
76745;SDS011;65671;49.976;20.038;2022-12-29T18:00:40;28.40;;;12.45;;
76745;SDS011;65671;49.976;20.038;2022-12-29T18:03:07;25.40;;;11.90;;
76745;SDS011;65671;49.976;20.038;2022-12-29T18:05:37;22.85;;;10.38;;
76745;SDS011;65671;49.976;20.038;2022-12-29T18:08:03;21.63;;;10.23;;
76745;SDS011;65671;49.976;20.038;2022-12-29T18:10:28;15.80;;;7.82;;
76745;SDS011;65671;49.976;20.038;2022-12-29T18:12:57;14.52;;;7.53;;
76745;SDS011;65671;49.976;20.038;2022-12-29T18:15:28;15.25;;;7.70;;
76745;SDS011;65671;49.976;20.038;2022-12-29T18:20:37;16.75;;;7.80;;
76745;SDS011;65671;49.976;20.038;2022-12-29T18:23:04;14.25;;;7.22;;
76745;SDS011;65671;49.976;20.038;2022-12-29T18:25:49;15.68;;;7.95;;
76745;SDS011;65671;49.976;20.038;2022-12-29T18:28:18;16.10;;;7.47;;
76745;SDS011;65671;49.976;20.038;2022-12-29T18:30:43;13.80;;;7.45;;
76745;SDS011;65671;49.976;20.038;2022-12-29T18:33:13;14.73;;;7.53;;
76745;SDS011;65671;49.976;20.038;2022-12-29T18:35:56;14.25;;;7.57;;
76745;SDS011;65671;49.976;20.038;2022-12-29T18:38:26;14.63;;;7.72;;
76745;SDS011;65671;49.976;20.038;2022-12-29T18:40:52;14.13;;;7.90;;
76745;SDS011;65671;49.976;20.038;2022-12-29T18:43:18;15.93;;;7.40;;
76745;SDS011;65671;49.976;20.038;2022-12-29T18:45:45;13.48;;;7.13;;
76745;SDS011;65671;49.976;20.038;2022-12-29T18:48:14;15.80;;;7.85;;
76745;SDS011;65671;49.976;20.038;2022-12-29T18:50:41;13.40;;;7.30;;
76745;SDS011;65671;49.976;20.038;2022-12-29T18:53:16;12.50;;;6.47;;
76745;SDS011;65671;49.976;20.038;2022-12-29T18:55:46;10.20;;;6.50;;
76745;SDS011;65671;49.976;20.038;2022-12-29T19:01:24;13.52;;;7.18;;
76745;SDS011;65671;49.976;20.038;2022-12-29T19:03:51;13.65;;;7.10;;
76745;SDS011;65671;49.976;20.038;2022-12-29T19:06:18;12.55;;;7.03;;
76745;SDS011;65671;49.976;20.038;2022-12-29T19:08:45;10.85;;;5.93;;
76745;SDS011;65671;49.976;20.038;2022-12-29T19:11:11;12.70;;;6.07;;
76745;SDS011;65671;49.976;20.038;2022-12-29T19:13:39;15.00;;;7.30;;
76745;SDS011;65671;49.976;20.038;2022-12-29T19:16:06;14.05;;;7.43;;
76745;SDS011;65671;49.976;20.038;2022-12-29T19:18:33;12.68;;;6.25;;